Time;durP1;ratioP1;P1;durP2;ratioP2;P2;SDS_P1;SDS_P2;PMS_P1;PMS_P2;Temp;Humidity;BMP_temperature;BMP_pressure;BME280_temperature;BME280_humidity;BME280_pressure;Samples;Min_cycle;Max_cycle;Signal;HPM_P1;HPM_P2
2023/01/11 00:01:54;;;;;;;3.30;1.50;;;;;;;7.59;97.83;100553.31;5093344;28;20505;-58
2023/01/11 00:04:27;;;;;;;3.83;1.63;;;;;;;7.55;97.50;100551.94;5093634;28;20040;-58
2023/01/11 00:06:53;;;;;;;4.60;1.63;;;;;;;7.57;97.19;100552.63;5092834;28;20076;-58
2023/01/11 00:09:20;;;;;;;4.65;1.50;;;;;;;7.60;98.01;100551.50;5092903;28;20044;-58
2023/01/11 00:11:47;;;;;;;3.17;1.48;;;;;;;7.55;97.52;100554.59;5093135;28;20054;-58
2023/01/11 00:14:14;;;;;;;3.70;1.35;;;;;;;7.46;97.78;100547.50;5095879;28;20067;-58
2023/01/11 00:16:41;;;;;;;2.85;0.98;;;;;;;7.60;97.36;100543.59;5097539;28;20059;-58
2023/01/11 00:19:08;;;;;;;3.72;1.50;;;;;;;7.64;97.30;100545.81;5097076;28;20052;-58
2023/01/11 00:21:34;;;;;;;2.10;1.20;;;;;;;7.59;96.95;100547.22;5097296;28;20048;-58
2023/01/11 00:24:01;;;;;;;3.05;1.55;;;;;;;7.67;97.08;100542.88;5097394;28;20097;-58
2023/01/11 00:26:28;;;;;;;2.88;1.17;;;;;;;7.67;96.37;100528.84;5097131;28;20051;-58
2023/01/11 00:28:55;;;;;;;3.63;1.33;;;;;;;7.71;96.42;100529.41;5097050;28;20382;-58
2023/01/11 00:31:22;;;;;;;3.45;1.40;;;;;;;7.57;96.74;100530.69;5096961;28;20493;-58
2023/01/11 00:33:48;;;;;;;3.17;1.33;;;;;;;7.74;96.74;100529.13;5096836;28;20044;-58
2023/01/11 00:36:15;;;;;;;2.92;1.20;;;;;;;7.71;96.86;100521.50;5096753;28;20081;-58
2023/01/11 00:38:43;;;;;;;2.15;1.08;;;;;;;7.85;96.09;100521.88;5096986;28;20052;-58
2023/01/11 00:49:33;;;;;;;2.45;1.08;;;;;;;7.98;96.27;100518.13;5096456;28;20067;-58
2023/01/11 00:52:00;;;;;;;1.65;1.10;;;;;;;7.94;96.26;100522.03;5096631;28;20471;-58
2023/01/11 00:54:27;;;;;;;2.60;1.27;;;;;;;7.91;96.45;100504.63;5096407;28;20048;-58
2023/01/11 00:56:54;;;;;;;2.88;1.10;;;;;;;7.94;96.61;100498.25;5096708;28;20481;-57
2023/01/11 00:59:20;;;;;;;1.27;1.08;;;;;;;8.00;96.01;100500.31;5096241;28;20048;-58
2023/01/11 01:01:47;;;;;;;3.72;1.30;;;;;;;8.01;96.00;100496.69;5096844;28;20044;-58
2023/01/11 01:04:14;;;;;;;2.50;1.30;;;;;;;8.05;95.93;100506.00;5096455;28;20047;-58
2023/01/11 01:06:41;;;;;;;2.83;1.27;;;;;;;8.02;95.33;100506.28;5077872;28;20048;-56
2023/01/11 01:09:07;;;;;;;3.35;1.20;;;;;;;8.04;96.29;100502.53;5074720;28;20131;-58
2023/01/11 01:11:34;;;;;;;2.17;1.10;;;;;;;8.11;95.89;100499.31;5075936;28;20051;-58
2023/01/11 01:14:32;;;;;;;4.18;1.30;;;;;;;8.05;96.12;100496.25;5082207;28;20047;-58
2023/01/11 01:16:48;;;;;;;3.92;1.15;;;;;;;8.09;95.83;100491.50;5095534;28;20104;-57
2023/01/11 01:19:15;;;;;;;3.17;1.17;;;;;;;8.11;96.46;100491.38;5096292;28;20048;-57
2023/01/11 01:21:42;;;;;;;4.00;1.35;;;;;;;8.07;96.22;100496.13;5096013;28;20058;-57
2023/01/11 01:24:08;;;;;;;2.08;1.20;;;;;;;8.08;96.27;100489.88;5095723;28;20097;-58
2023/01/11 01:26:36;;;;;;;4.53;1.20;;;;;;;8.10;96.43;100484.44;5096068;28;20051;-58
2023/01/11 01:29:03;;;;;;;2.03;0.90;;;;;;;8.16;96.30;100487.31;5095616;28;20048;-58
2023/01/11 01:31:30;;;;;;;2.42;1.15;;;;;;;8.21;96.41;100484.25;5096082;28;20044;-58
2023/01/11 01:33:57;;;;;;;2.67;1.23;;;;;;;8.23;96.74;100477.84;5095672;28;20044;-58
2023/01/11 01:36:24;;;;;;;3.28;1.20;;;;;;;8.22;96.33;100468.25;5095714;28;20123;-56
2023/01/11 01:38:51;;;;;;;3.45;1.40;;;;;;;8.26;96.30;100474.09;5095667;28;20048;-56
2023/01/11 01:41:18;;;;;;;3.67;1.45;;;;;;;8.25;96.08;100470.59;5095781;28;20044;-57
2023/01/11 01:44:02;;;;;;;3.10;1.40;;;;;;;8.02;96.36;100466.66;5095656;28;20071;-56
2023/01/11 01:46:31;;;;;;;3.53;1.40;;;;;;;8.04;96.28;100462.06;5095501;28;20422;-57
2023/01/11 01:49:06;;;;;;;3.85;1.42;;;;;;;8.06;96.66;100463.59;5095541;28;20044;-56
2023/01/11 01:51:40;;;;;;;3.30;1.40;;;;;;;7.97;97.10;100466.28;5095050;28;20526;-56
2023/01/11 01:54:14;;;;;;;4.60;1.40;;;;;;;7.92;97.85;100460.59;5095603;28;20054;-57
2023/01/11 01:56:47;;;;;;;5.00;1.50;;;;;;;7.93;97.09;100456.94;5095308;28;20059;-56
2023/01/11 01:59:17;;;;;;;3.47;1.30;;;;;;;7.93;97.61;100449.88;5095382;28;20432;-57
2023/01/11 02:01:45;;;;;;;2.28;1.17;;;;;;;7.86;97.66;100454.91;5095094;28;20054;-57
2023/01/11 02:04:23;;;;;;;3.42;1.20;;;;;;;7.99;97.27;100461.69;5095632;28;20382;-56
2023/01/11 02:06:58;;;;;;;3.90;1.80;;;;;;;8.00;98.20;100458.88;5094784;28;20048;-57
2023/01/11 02:09:42;;;;;;;2.72;1.20;;;;;;;8.07;97.21;100459.13;5095007;28;20048;-56
2023/01/11 02:12:09;;;;;;;3.65;1.40;;;;;;;8.06;98.53;100455.66;5095260;28;20048;-57
2023/01/11 02:14:38;;;;;;;2.83;1.40;;;;;;;7.93;99.54;100456.94;5094810;28;20043;-56
2023/01/11 02:17:06;;;;;;;3.25;1.30;;;;;;;7.90;100.00;100451.97;5095103;28;20044;-56
2023/01/11 02:19:49;;;;;;;2.83;1.33;;;;;;;7.97;100.00;100450.44;5095126;28;20098;-57
2023/01/11 02:22:50;;;;;;;3.10;1.40;;;;;;;7.92;100.00;100445.56;5095169;28;20132;-57
2023/01/11 02:25:57;;;;;;;2.72;1.40;;;;;;;7.82;100.00;100437.69;5093959;28;20044;-56
2023/01/11 02:28:45;;;;;;;2.78;1.50;;;;;;;7.74;100.00;100428.81;5094374;28;20409;-57
2023/01/11 02:31:30;;;;;;;3.22;1.48;;;;;;;7.69;100.00;100430.06;5094668;28;20054;-56
2023/01/11 02:34:20;;;;;;;3.22;1.50;;;;;;;7.55;100.00;100427.88;5094782;28;20485;-57
2023/01/11 02:37:14;;;;;;;3.15;1.42;;;;;;;7.68;100.00;100433.66;5093525;28;20130;-56
2023/01/11 02:45:36;;;;;;;3.33;1.40;;;;;;;7.49;100.00;100423.16;5111101;28;20036;-58
2023/01/11 02:48:29;;;;;;;4.43;1.60;;;;;;;7.62;100.00;100417.56;5111137;28;20044;-56
2023/01/11 02:53:49;;;;;;;2.40;1.50;;;;;;;7.68;100.00;100414.38;5110990;27;20354;-58
2023/01/11 02:56:20;;;;;;;3.15;1.60;;;;;;;7.72;100.00;100405.19;5111344;28;20097;-58
2023/01/11 02:58:50;;;;;;;3.85;1.80;;;;;;;7.72;100.00;100404.34;5110783;28;20044;-58
2023/01/11 03:01:21;;;;;;;4.45;1.70;;;;;;;7.59;100.00;100400.22;5111330;28;20043;-58
2023/01/11 03:03:49;;;;;;;3.95;1.63;;;;;;;7.70;100.00;100399.22;5111199;28;20051;-57
2023/01/11 03:06:19;;;;;;;3.95;1.67;;;;;;;7.70;100.00;100396.56;5105334;28;20039;-58
2023/01/11 03:20:30;;;;;;;5.55;2.08;;;;;;;7.85;100.00;100373.16;5109794;27;20386;-58
2023/01/11 03:23:20;;;;;;;5.57;1.98;;;;;;;7.83;100.00;100375.13;5110898;28;20090;-58
2023/01/11 03:25:59;;;;;;;6.15;2.22;;;;;;;7.83;100.00;100380.41;5110694;28;20405;-58
2023/01/11 03:28:57;;;;;;;5.03;1.88;;;;;;;7.91;100.00;100388.41;5111047;28;20067;-58
2023/01/11 03:31:35;;;;;;;3.38;1.77;;;;;;;7.99;100.00;100385.91;5110814;28;20043;-58
2023/01/11 03:34:17;;;;;;;3.83;1.73;;;;;;;8.07;100.00;100391.25;5111088;28;20052;-59
2023/01/11 03:36:53;;;;;;;5.32;1.70;;;;;;;8.07;100.00;100399.19;5110963;28;20397;-58
2023/01/11 03:39:28;;;;;;;4.47;1.52;;;;;;;8.17;100.00;100390.41;5110832;28;20078;-58
2023/01/11 03:41:58;;;;;;;5.18;1.90;;;;;;;8.18;100.00;100389.41;5111138;28;20048;-58
2023/01/11 03:44:30;;;;;;;10.05;2.05;;;;;;;8.20;100.00;100377.72;5110584;28;20047;-58
2023/01/11 03:47:03;;;;;;;2.00;1.40;;;;;;;8.26;100.00;100382.44;5110863;28;20359;-58
2023/01/11 03:49:38;;;;;;;4.18;1.50;;;;;;;8.34;100.00;100386.13;5110767;28;20062;-58
2023/01/11 03:52:09;;;;;;;12.05;1.70;;;;;;;8.30;100.00;100390.88;5110640;28;20048;-58
2023/01/11 03:54:36;;;;;;;4.00;1.60;;;;;;;8.36;100.00;100386.81;5110911;28;20050;-58
2023/01/11 03:57:16;;;;;;;7.43;1.77;;;;;;;8.43;100.00;100385.28;5110317;28;20044;-58
2023/01/11 03:59:43;;;;;;;3.92;1.58;;;;;;;8.52;100.00;100373.81;5110459;28;20075;-58
2023/01/11 04:02:17;;;;;;;5.60;1.60;;;;;;;8.58;100.00;100367.09;5110482;28;20048;-58
2023/01/11 04:04:44;;;;;;;4.50;1.60;;;;;;;8.57;100.00;100373.38;5110607;28;20509;-58
2023/01/11 04:07:11;;;;;;;6.95;1.70;;;;;;;8.62;100.00;100364.00;5109785;28;20067;-58
2023/01/11 04:09:38;;;;;;;5.20;1.50;;;;;;;8.62;100.00;100355.22;5110207;28;20043;-58
2023/01/11 04:12:05;;;;;;;2.90;1.20;;;;;;;8.57;100.00;100358.34;5110452;28;20051;-58
2023/01/11 04:14:32;;;;;;;5.78;1.55;;;;;;;8.63;100.00;100359.53;5110068;28;20078;-58
2023/01/11 04:16:58;;;;;;;3.10;1.27;;;;;;;8.60;100.00;100358.03;5110231;28;20059;-58
2023/01/11 04:19:25;;;;;;;4.95;1.42;;;;;;;8.71;100.00;100359.59;5109578;28;20505;-58
2023/01/11 04:21:52;;;;;;;4.35;1.30;;;;;;;8.74;100.00;100356.66;5109974;28;20085;-58
2023/01/11 04:24:18;;;;;;;7.15;1.33;;;;;;;8.65;100.00;100347.81;5109988;28;20393;-58
2023/01/11 04:26:45;;;;;;;2.60;1.20;;;;;;;8.63;100.00;100346.31;5110155;28;20051;-58
2023/01/11 04:29:12;;;;;;;3.15;1.40;;;;;;;8.67;100.00;100346.84;5109719;28;20105;-58
2023/01/11 04:31:39;;;;;;;7.65;1.40;;;;;;;8.70;100.00;100336.81;5095953;28;20056;-58
2023/01/11 04:34:06;;;;;;;3.05;1.20;;;;;;;8.75;100.00;100334.53;5096526;28;20094;-58
2023/01/11 04:36:32;;;;;;;1.92;1.00;;;;;;;8.81;100.00;100341.03;5095932;28;20055;-59
2023/01/11 04:38:59;;;;;;;3.92;1.38;;;;;;;8.86;100.00;100346.69;5096350;28;20055;-58
2023/01/11 04:44:12;;;;;;;6.53;1.60;;;;;;;8.70;100.00;100336.81;5096099;28;20105;-60
2023/01/11 04:46:39;;;;;;;4.40;1.70;;;;;;;8.77;100.00;100340.50;5098796;28;20044;-58
2023/01/11 04:49:06;;;;;;;6.68;1.80;;;;;;;8.83;100.00;100331.13;5101402;28;20067;-58
2023/01/11 04:51:32;;;;;;;6.18;1.80;;;;;;;8.79;100.00;100329.78;5100719;28;20105;-58
2023/01/11 04:53:59;;;;;;;6.47;2.22;;;;;;;8.81;100.00;100335.75;5099649;28;20048;-58
2023/01/11 04:56:26;;;;;;;7.63;1.83;;;;;;;8.83;100.00;100334.59;5100398;28;20456;-58
2023/01/11 04:58:52;;;;;;;3.47;1.70;;;;;;;8.80;100.00;100342.84;5097782;28;20040;-59
2023/01/11 05:01:19;;;;;;;3.70;1.70;;;;;;;8.77;100.00;100342.31;5096022;28;20048;-59
2023/01/11 05:03:46;;;;;;;6.00;1.98;;;;;;;8.82;100.00;100348.81;5095825;28;20075;-58
2023/01/11 05:06:14;;;;;;;5.97;1.80;;;;;;;8.86;100.00;100340.56;5095443;28;20409;-58
2023/01/11 05:08:46;;;;;;;5.63;1.70;;;;;;;8.90;100.00;100331.34;5071940;28;20044;-58
2023/01/11 05:11:14;;;;;;;4.72;1.90;;;;;;;8.96;100.00;100336.84;5075567;28;20049;-58
2023/01/11 05:13:41;;;;;;;5.63;2.03;;;;;;;8.94;100.00;100330.88;5078738;28;20044;-58
2023/01/11 05:16:23;;;;;;;3.83;1.80;;;;;;;8.94;100.00;100320.28;5093986;28;20051;-58
2023/01/11 05:18:53;;;;;;;4.03;1.67;;;;;;;9.03;100.00;100331.78;5095009;28;20048;-58
2023/01/11 05:21:22;;;;;;;5.55;1.60;;;;;;;9.02;100.00;100327.47;5095274;28;20504;-58
2023/01/11 05:23:49;;;;;;;6.93;1.92;;;;;;;8.96;100.00;100336.84;5095340;28;20044;-58
2023/01/11 05:26:19;;;;;;;6.75;1.90;;;;;;;9.03;100.00;100327.31;5095462;28;20114;-58
2023/01/11 05:28:46;;;;;;;4.75;1.80;;;;;;;9.00;100.00;100326.78;5095034;28;20048;-58
2023/01/11 05:31:13;;;;;;;8.10;2.10;;;;;;;9.01;100.00;100336.41;5095347;28;20102;-58
2023/01/11 05:33:40;;;;;;;6.63;2.03;;;;;;;9.03;100.00;100332.59;5094903;28;20051;-58
2023/01/11 05:36:11;;;;;;;6.57;1.83;;;;;;;9.10;100.00;100324.88;5095117;28;20055;-58
2023/01/11 05:38:38;;;;;;;5.82;1.83;;;;;;;8.99;100.00;100338.38;5094907;28;20047;-58
2023/01/11 05:41:07;;;;;;;5.22;1.83;;;;;;;9.12;100.00;100327.38;5094844;28;20048;-58
2023/01/11 05:46:22;;;;;;;6.40;2.40;;;;;;;9.19;100.00;100331.91;5094905;28;20486;-58
2023/01/11 05:48:49;;;;;;;8.68;2.38;;;;;;;9.26;100.00;100325.97;5094922;28;20047;-58
2023/01/11 05:51:16;;;;;;;6.82;2.33;;;;;;;9.18;100.00;100332.03;5094698;28;20075;-58
2023/01/11 05:53:44;;;;;;;7.43;2.45;;;;;;;9.19;100.00;100333.72;5094891;28;20135;-58
2023/01/11 05:56:10;;;;;;;6.82;1.90;;;;;;;9.38;100.00;100330.03;5094445;28;20565;-57
2023/01/11 05:58:37;;;;;;;6.53;1.90;;;;;;;9.43;100.00;100330.38;5094519;28;20096;-58
2023/01/11 06:01:05;;;;;;;8.88;3.05;;;;;;;9.48;100.00;100333.41;5094264;28;20470;-58
2023/01/11 06:03:31;;;;;;;8.00;2.45;;;;;;;9.54;100.00;100335.41;5094971;28;20048;-57
2023/01/11 06:05:58;;;;;;;5.95;1.63;;;;;;;9.71;100.00;100330.19;5094304;28;20078;-57
2023/01/11 06:08:25;;;;;;;4.28;1.50;;;;;;;9.79;100.00;100325.78;5093866;28;20044;-57
2023/01/11 06:10:53;;;;;;;4.72;1.52;;;;;;;9.79;100.00;100325.78;5094594;28;20057;-58
2023/01/11 06:13:29;;;;;;;2.42;1.20;;;;;;;9.77;100.00;100327.75;5094194;28;20078;-58
2023/01/11 06:16:03;;;;;;;7.53;1.70;;;;;;;9.83;100.00;100328.13;5094567;28;20047;-57
2023/01/11 06:18:32;;;;;;;4.80;1.25;;;;;;;9.83;100.00;100320.16;5093847;28;20055;-57
2023/01/11 06:21:00;;;;;;;3.33;1.17;;;;;;;9.87;100.00;100324.97;5094443;28;20044;-58
2023/01/11 06:23:28;;;;;;;2.70;1.20;;;;;;;10.09;100.00;100330.69;5093997;28;20063;-58
2023/01/11 06:25:55;;;;;;;2.47;1.17;;;;;;;10.03;100.00;100329.50;5093872;28;20055;-58
2023/01/11 06:28:22;;;;;;;3.92;1.10;;;;;;;9.93;100.00;100327.00;5094235;28;20040;-58
2023/01/11 06:30:52;;;;;;;2.05;1.02;;;;;;;9.94;100.00;100333.94;5093505;28;20485;-58
2023/01/11 06:33:21;;;;;;;2.08;1.00;;;;;;;10.01;100.00;100333.31;5094135;28;20513;-57
2023/01/11 06:35:47;;;;;;;3.58;1.13;;;;;;;10.02;100.00;100332.31;5093841;28;20105;-58
2023/01/11 06:38:16;;;;;;;12.77;6.20;;;;;;;10.08;100.00;100339.63;5094062;28;20459;-58
2023/01/11 06:40:49;;;;;;;7.20;1.77;;;;;;;10.11;100.00;100334.81;5093723;28;20040;-57
2023/01/11 06:43:15;;;;;;;3.65;1.23;;;;;;;10.13;100.00;100334.66;5093560;28;20101;-57
2023/01/11 06:45:42;;;;;;;2.42;1.10;;;;;;;10.17;100.00;100336.84;5093712;28;20048;-57
2023/01/11 06:48:09;;;;;;;3.28;1.05;;;;;;;10.17;100.00;100338.69;5093268;28;20040;-56
2023/01/11 06:50:35;;;;;;;4.13;1.20;;;;;;;10.17;100.00;100339.50;5093525;28;20114;-58
2023/01/11 06:53:02;;;;;;;5.80;1.23;;;;;;;10.25;100.00;100343.97;5092403;28;20483;-59
2023/01/11 06:55:29;;;;;;;4.28;1.10;;;;;;;10.26;100.00;100339.50;5093526;28;20048;-57
2023/01/11 06:57:56;;;;;;;3.10;1.30;;;;;;;10.20;100.00;100346.28;5093182;28;20044;-58
2023/01/11 07:00:23;;;;;;;6.70;1.00;;;;;;;10.17;100.00;100350.09;5093145;28;20071;-58
2023/01/11 07:02:50;;;;;;;2.05;1.00;;;;;;;10.19;100.00;100357.91;5093518;28;20072;-58
2023/01/11 07:05:17;;;;;;;2.03;1.02;;;;;;;10.24;100.00;100360.91;5093397;28;20482;-57
2023/01/11 07:07:46;;;;;;;1.88;0.93;;;;;;;10.24;100.00;100365.34;5078818;28;20060;-58
2023/01/11 07:10:15;;;;;;;3.00;1.00;;;;;;;10.25;100.00;100367.84;5086006;28;20048;-57
2023/01/11 07:12:41;;;;;;;4.60;0.93;;;;;;;10.19;100.00;100371.16;5093137;28;20054;-58
2023/01/11 07:15:09;;;;;;;3.63;1.00;;;;;;;10.18;100.00;100372.13;5092982;28;20044;-58
2023/01/11 07:17:36;;;;;;;1.38;0.80;;;;;;;10.15;100.00;100383.03;5093156;28;20044;-58
2023/01/11 07:20:05;;;;;;;2.45;0.93;;;;;;;10.22;100.00;100384.06;5092749;28;20102;-58
2023/01/11 07:22:34;;;;;;;2.58;1.33;;;;;;;10.21;100.00;100386.91;5093218;28;20562;-57
2023/01/11 07:25:02;;;;;;;1.33;0.77;;;;;;;10.24;100.00;100391.84;5093367;28;20047;-57
2023/01/11 07:27:29;;;;;;;3.97;1.02;;;;;;;10.31;100.00;100399.03;5093164;28;20071;-56
2023/01/11 07:29:58;;;;;;;1.27;0.80;;;;;;;10.21;100.00;100403.63;5092928;28;20040;-56
2023/01/11 07:32:26;;;;;;;1.38;1.00;;;;;;;10.20;100.00;100407.25;5093107;28;20044;-56
2023/01/11 07:34:54;;;;;;;1.27;1.00;;;;;;;10.29;100.00;100421.38;5093310;28;20532;-56
2023/01/11 07:37:24;;;;;;;3.47;1.10;;;;;;;10.22;100.00;100415.88;5093183;28;20040;-57
2023/01/11 07:39:51;;;;;;;2.08;1.00;;;;;;;10.22;100.00;100412.41;5092665;28;20040;-58
2023/01/11 07:45:04;;;;;;;2.42;1.20;;;;;;;10.30;100.00;100425.69;5092134;28;20464;-56
2023/01/11 07:47:31;;;;;;;2.28;1.10;;;;;;;10.24;100.00;100421.88;5093339;28;20052;-57
2023/01/11 07:49:58;;;;;;;2.63;1.20;;;;;;;10.24;100.00;100405.13;5092939;28;20048;-57
2023/01/11 07:52:25;;;;;;;3.47;1.33;;;;;;;10.24;100.00;100387.41;5093108;28;20040;-56
2023/01/11 07:54:52;;;;;;;4.60;1.50;;;;;;;10.29;100.00;100397.50;5093017;28;20055;-57
2023/01/11 07:57:18;;;;;;;6.20;1.50;;;;;;;10.26;100.00;100390.72;5093121;28;20097;-57
2023/01/11 07:59:45;;;;;;;3.15;1.45;;;;;;;10.30;100.00;100393.88;5075016;28;20049;-58
2023/01/11 08:02:12;;;;;;;6.57;1.48;;;;;;;10.21;100.00;100397.50;5087724;28;20047;-58
2023/01/11 08:04:38;;;;;;;3.33;1.48;;;;;;;10.20;100.00;100417.84;5065540;28;20044;-55
2023/01/11 08:07:05;;;;;;;5.07;1.98;;;;;;;10.34;100.00;100425.25;5075094;28;20051;-54
2023/01/11 08:09:32;;;;;;;5.65;1.38;;;;;;;10.41;100.00;100429.91;5087953;28;20048;-55
2023/01/11 08:14:45;;;;;;;6.97;1.63;;;;;;;10.45;100.00;100442.69;5095815;28;20046;-55
2023/01/11 08:17:14;;;;;;;3.55;1.70;;;;;;;10.63;100.00;100447.06;5105796;28;20048;-58
2023/01/11 08:19:42;;;;;;;6.10;1.83;;;;;;;10.43;100.00;100452.63;5087511;28;20150;-57
2023/01/11 08:22:09;;;;;;;5.70;1.95;;;;;;;10.40;100.00;100452.09;5090812;28;20052;-57
2023/01/11 08:24:36;;;;;;;5.85;2.10;;;;;;;10.29;100.00;100447.88;5095006;28;20072;-57
2023/01/11 08:27:03;;;;;;;5.93;2.15;;;;;;;10.37;100.00;100440.00;5090302;28;20052;-57
2023/01/11 08:29:30;;;;;;;10.30;2.78;;;;;;;10.36;100.00;100448.94;5093029;28;20048;-57
2023/01/11 08:31:58;;;;;;;8.70;2.47;;;;;;;10.47;100.00;100446.00;5087196;28;20105;-57
2023/01/11 08:34:27;;;;;;;7.97;2.55;;;;;;;10.46;100.00;100447.00;5094066;28;20050;-57
2023/01/11 08:36:56;;;;;;;9.18;2.53;;;;;;;10.48;100.00;100466.22;5085633;28;20062;-57
2023/01/11 08:39:23;;;;;;;17.15;6.28;;;;;;;10.49;100.00;100467.06;5093566;28;20051;-58
2023/01/11 08:41:50;;;;;;;11.75;3.38;;;;;;;10.41;100.00;100482.94;5092056;28;20454;-57
2023/01/11 08:44:17;;;;;;;6.78;2.55;;;;;;;10.34;100.00;100499.47;5091114;28;20500;-57
2023/01/11 08:46:54;;;;;;;11.05;3.17;;;;;;;10.26;100.00;100507.38;5090497;28;20048;-57
2023/01/11 08:49:21;;;;;;;25.67;3.38;;;;;;;10.17;100.00;100505.66;5092854;28;20089;-57
2023/01/11 08:51:48;;;;;;;19.73;3.88;;;;;;;10.13;100.00;100501.66;5091287;28;20401;-57
2023/01/11 08:54:16;;;;;;;13.10;4.15;;;;;;;10.01;100.00;100497.63;5085638;28;20184;-57
2023/01/11 08:56:43;;;;;;;13.60;3.78;;;;;;;9.93;100.00;100508.97;5080475;28;20048;-57
2023/01/11 08:59:10;;;;;;;12.88;3.75;;;;;;;9.83;100.00;100517.03;5068579;28;20125;-57
2023/01/11 09:01:37;;;;;;;16.65;3.95;;;;;;;9.76;100.00;100516.81;5082356;28;20036;-57
2023/01/11 09:04:04;;;;;;;13.50;4.00;;;;;;;9.79;100.00;100511.22;5088732;28;20059;-57
2023/01/11 09:06:41;;;;;;;10.77;3.05;;;;;;;9.69;100.00;100521.06;5092587;28;20072;-57
2023/01/11 09:09:07;;;;;;;13.57;3.72;;;;;;;9.68;100.00;100534.44;5075511;28;20138;-57
2023/01/11 09:12:05;;;;;;;17.67;6.68;;;;;;;9.65;100.00;100554.13;5069741;28;20043;-57
2023/01/11 09:14:23;;;;;;;22.25;10.20;;;;;;;9.68;100.00;100550.34;5080007;28;20044;-57
2023/01/11 09:16:51;;;;;;;33.40;14.85;;;;;;;9.70;100.00;100553.69;5089022;28;20052;-58
2023/01/11 09:19:19;;;;;;;27.73;17.50;;;;;;;9.61;100.00;100561.56;5092709;28;20097;-57
2023/01/11 09:21:46;;;;;;;31.63;14.95;;;;;;;9.65;100.00;100559.44;5094163;28;20101;-57
2023/01/11 09:24:13;;;;;;;34.13;14.32;;;;;;;9.64;100.00;100565.75;5093377;28;20052;-57
2023/01/11 09:26:42;;;;;;;44.70;15.20;;;;;;;9.82;100.00;100555.09;5085167;28;20051;-57
2023/01/11 09:29:09;;;;;;;29.15;14.60;;;;;;;9.72;100.00;100567.63;5084182;28;20032;-57
2023/01/11 09:31:36;;;;;;;22.58;8.98;;;;;;;9.71;100.00;100577.34;5092641;28;20371;-57
2023/01/11 09:34:04;;;;;;;27.92;5.70;;;;;;;9.77;100.00;100583.88;5089380;28;20066;-57
2023/01/11 09:36:32;;;;;;;27.60;5.55;;;;;;;9.80;100.00;100583.56;5091829;28;20043;-57
2023/01/11 09:39:01;;;;;;;18.60;4.50;;;;;;;9.75;100.00;100594.63;5088419;28;20050;-57
2023/01/11 09:41:55;;;;;;;28.42;4.93;;;;;;;9.75;100.00;100593.78;5093404;28;20040;-57
2023/01/11 09:44:25;;;;;;;25.63;4.60;;;;;;;9.59;100.00;100599.78;5079216;28;21093;-57
2023/01/11 09:47:02;;;;;;;31.75;4.82;;;;;;;9.59;100.00;100608.56;5072522;28;20048;-57
2023/01/11 09:49:39;;;;;;;25.42;4.60;;;;;;;9.53;100.00;100618.91;5068230;28;20045;-57
2023/01/11 09:52:23;;;;;;;25.27;4.47;;;;;;;9.58;100.00;100603.41;5072062;28;20044;-57
2023/01/11 09:54:51;;;;;;;31.85;4.20;;;;;;;9.60;100.00;100610.22;5067813;28;20049;-56
2023/01/11 10:00:11;;;;;;;33.83;5.18;;;;;;;9.75;100.00;100614.97;5069659;27;1195418;-58
2023/01/11 10:03:15;;;;;;;25.80;4.88;;;;;;;9.61;100.00;100627.78;5099269;28;20131;-57
2023/01/11 10:06:09;;;;;;;23.70;4.85;;;;;;;9.61;100.00;100619.81;5090214;28;20056;-57
2023/01/11 10:09:17;;;;;;;27.27;4.13;;;;;;;9.46;100.00;100616.03;5105820;28;20553;-58
2023/01/11 10:12:11;;;;;;;33.00;4.70;;;;;;;9.45;100.00;100629.44;5104333;28;20044;-57
2023/01/11 10:15:03;;;;;;;27.75;4.55;;;;;;;9.45;100.00;100635.53;5107833;28;20105;-57
2023/01/11 10:17:49;;;;;;;24.08;4.50;;;;;;;9.51;100.00;100637.59;5100451;28;20035;-57
2023/01/11 10:20:41;;;;;;;40.97;4.85;;;;;;;9.53;100.00;100646.25;5100555;28;20090;-57
2023/01/11 10:23:23;;;;;;;34.13;4.90;;;;;;;9.51;100.00;100637.59;5108853;28;20040;-58
2023/01/11 10:25:55;;;;;;;34.90;4.15;;;;;;;9.58;100.00;100637.81;5104197;28;20795;-57
2023/01/11 10:28:34;;;;;;;30.55;4.15;;;;;;;9.52;100.00;100636.63;5103101;28;20079;-57
2023/01/11 10:31:27;;;;;;;28.38;4.57;;;;;;;9.52;100.00;100649.03;5097762;28;20082;-58
2023/01/11 10:37:09;;;;;;;34.65;7.38;;;;;;;9.56;100.00;100666.28;5087170;28;20042;-58
2023/01/11 10:40:16;;;;;;;27.38;6.32;;;;;;;9.50;100.00;100670.38;5107197;28;20489;-58
2023/01/11 10:42:50;;;;;;;30.33;5.20;;;;;;;9.56;100.00;100668.94;5081879;28;20131;-57
2023/01/11 10:45:24;;;;;;;33.90;6.00;;;;;;;9.49;100.00;100668.69;5102766;28;20059;-57
2023/01/11 10:48:00;;;;;;;36.83;7.18;;;;;;;9.53;100.00;100662.13;5102166;28;20047;-58
2023/01/11 10:50:39;;;;;;;23.25;5.65;;;;;;;9.52;100.00;100673.69;5107149;28;20052;-57
2023/01/11 10:56:01;;;;;;;18.52;4.72;;;;;;;9.78;99.83;100665.84;5054153;28;20399;-57
2023/01/11 10:59:06;;;;;;;32.70;5.80;;;;;;;9.78;98.62;100663.19;5048529;28;20124;-57
2023/01/11 11:01:47;;;;;;;24.15;4.28;;;;;;;9.74;99.88;100669.78;5047259;28;20536;-57
2023/01/11 11:07:25;;;;;;;17.83;4.35;;;;;;;10.63;95.54;100670.72;5108543;27;20370;-58
2023/01/11 11:10:17;;;;;;;29.48;5.40;;;;;;;11.48;89.25;100661.97;5087019;28;20048;-58
2023/01/11 11:12:53;;;;;;;;;;;;;;;10.73;91.91;100658.19;5088224;28;20139;-58
2023/01/11 11:15:30;;;;;;;21.55;4.60;;;;;;;10.00;95.02;100669.03;5105264;28;19966;-58
2023/01/11 11:17:57;;;;;;;26.23;5.15;;;;;;;9.70;96.89;100654.34;5106143;28;20051;-58
2023/01/11 11:20:30;;;;;;;23.63;5.82;;;;;;;9.39;97.83;100658.16;5108176;28;20051;-58
2023/01/11 11:22:56;;;;;;;;;;;;;;;9.50;97.13;100677.47;5105892;28;20058;-58
2023/01/11 11:25:30;;;;;;;23.92;5.43;;;;;;;9.58;96.62;100680.22;5088302;28;19924;-57
2023/01/11 11:28:04;;;;;;;22.52;5.80;;;;;;;10.50;92.73;100679.06;5082027;28;20490;-58
2023/01/11 11:30:37;;;;;;;22.05;5.43;;;;;;;10.99;89.86;100678.53;5094596;28;20043;-58
2023/01/11 11:33:12;;;;;;;28.88;6.10;;;;;;;12.74;81.53;100693.63;5102905;28;20044;-58
2023/01/11 11:35:42;;;;;;;20.98;5.47;;;;;;;12.06;82.08;100684.19;5108335;28;20497;-58
2023/01/11 11:38:21;;;;;;;28.20;6.10;;;;;;;11.27;87.12;100675.69;5087048;28;20045;-59
2023/01/11 11:40:58;;;;;;;23.98;5.03;;;;;;;11.64;83.12;100677.97;5100141;28;20062;-58
2023/01/11 11:43:26;;;;;;;22.23;4.97;;;;;;;11.53;81.20;100672.94;5097514;28;20135;-58
2023/01/11 11:45:57;;;;;;;21.63;4.93;;;;;;;11.44;81.14;100682.72;5087066;28;20036;-58
2023/01/11 11:48:26;;;;;;;16.15;4.10;;;;;;;10.61;83.49;100695.75;5088108;28;20048;-58
2023/01/11 11:50:56;;;;;;;21.15;5.20;;;;;;;10.64;83.89;100692.75;5086521;28;20100;-58
2023/01/11 11:53:52;;;;;;;22.33;4.43;;;;;;;12.12;78.62;100704.00;5105931;28;20496;-57
2023/01/11 11:56:28;;;;;;;25.27;4.43;;;;;;;12.52;74.84;100705.81;5082696;28;20521;-58
2023/01/11 11:58:57;;;;;;;18.67;3.83;;;;;;;12.36;75.91;100711.13;5083537;28;20040;-58
2023/01/11 12:01:30;;;;;;;20.83;4.10;;;;;;;12.80;76.62;100708.09;5086366;28;20113;-58
2023/01/11 12:04:01;;;;;;;21.73;4.90;;;;;;;12.87;75.25;100693.94;5108100;28;20052;-58
2023/01/11 12:06:29;;;;;;;27.20;4.63;;;;;;;13.23;73.85;100696.16;5098818;28;20036;-57
2023/01/11 12:09:00;;;;;;;22.52;3.22;;;;;;;13.16;70.70;100691.69;5102986;28;20066;-57
2023/01/11 12:11:33;;;;;;;22.25;3.75;;;;;;;12.71;72.58;100706.44;5103058;28;20106;-57
2023/01/11 12:14:05;;;;;;;32.40;4.63;;;;;;;12.89;71.08;100696.44;5104372;28;20043;-57
2023/01/11 12:16:38;;;;;;;18.15;3.47;;;;;;;12.49;73.70;100698.97;5100926;28;20467;-57
2023/01/11 12:19:31;;;;;;;17.20;3.25;;;;;;;12.21;75.16;100703.81;5093692;28;20538;-57
2023/01/11 12:22:18;;;;;;;22.77;3.50;;;;;;;12.41;75.52;100691.03;5082962;28;20157;-58
2023/01/11 12:24:47;;;;;;;22.98;3.55;;;;;;;12.17;75.59;100699.84;5076528;28;20116;-57
2023/01/11 12:27:30;;;;;;;25.55;4.32;;;;;;;11.87;74.23;100688.78;5074057;28;20045;-58
2023/01/11 12:33:17;;;;;;;26.15;4.60;;;;;;;11.99;74.37;100696.47;5079254;27;20129;-57
2023/01/11 12:38:47;;;;;;;28.15;4.15;;;;;;;11.70;71.02;100701.22;5086764;27;20364;-58
2023/01/11 12:41:50;;;;;;;14.35;3.78;;;;;;;11.66;70.01;100699.88;5090170;28;20043;-57